Time;durP1;ratioP1;P1;durP2;ratioP2;P2;SDS_P1;SDS_P2;PMS_P1;PMS_P2;Temp;Humidity;BMP_temperature;BMP_pressure;BME280_temperature;BME280_humidity;BME280_pressure;Samples;Min_cycle;Max_cycle;Signal;HPM_P1;HPM_P2
2021/06/03 00:01:54;;;;;;;10.57;3.45;;;;;;;;;;5015497;28;20542;-38
2021/06/03 00:04:19;;;;;;;6.38;2.65;;;;;;;;;;5014646;28;20053;-38
2021/06/03 00:06:45;;;;;;;10.40;2.55;;;;;;;;;;5014504;28;20042;-38
2021/06/03 00:09:10;;;;;;;13.25;3.33;;;;;;;;;;5019062;28;20510;-38
2021/06/03 00:11:36;;;;;;;6.75;2.20;;;;;;;;;;5012981;28;20034;-38
2021/06/03 00:14:01;;;;;;;9.38;3.00;;;;;;;;;;5012755;28;20487;-38
2021/06/03 00:16:33;;;;;;;8.02;3.40;;;;;;;;;;5017800;28;20065;-38
2021/06/03 00:18:59;;;;;;;7.28;3.28;;;;;;;;;;5013228;28;20030;-38
2021/06/03 00:21:25;;;;;;;20.75;3.60;;;;;;;;;;5014938;28;20041;-38
2021/06/03 00:23:51;;;;;;;9.40;2.35;;;;;;;;;;5016021;28;20105;-38
2021/06/03 00:26:16;;;;;;;8.27;3.17;;;;;;;;;;5016778;28;20497;-38
2021/06/03 00:28:41;;;;;;;10.27;3.63;;;;;;;;;;5015544;28;20083;-38
2021/06/03 00:31:06;;;;;;;8.55;3.40;;;;;;;;;;5017908;28;20403;-38
2021/06/03 00:33:32;;;;;;;7.03;2.80;;;;;;;;;;5016948;28;20390;-38
2021/06/03 00:35:57;;;;;;;5.15;3.28;;;;;;;;;;5015719;28;20451;-38
2021/06/03 00:38:22;;;;;;;10.77;4.70;;;;;;;;;;5017906;28;20659;-38
2021/06/03 00:40:48;;;;;;;3.75;2.33;;;;;;;;;;5015215;28;20038;-38
2021/06/03 00:43:13;;;;;;;7.22;2.92;;;;;;;;;;5000692;28;20457;-38
2021/06/03 00:45:40;;;;;;;4.57;2.83;;;;;;;;;;5015969;28;20023;-38
2021/06/03 00:48:06;;;;;;;5.97;3.47;;;;;;;;;;5020188;28;20058;-38
2021/06/03 00:50:42;;;;;;;8.23;4.03;;;;;;;;;;5020901;28;20045;-38
2021/06/03 00:53:09;;;;;;;18.17;5.32;;;;;;;;;;5016690;28;20057;-38
2021/06/03 00:55:35;;;;;;;7.43;3.92;;;;;;;;;;5020349;28;20406;-39
2021/06/03 00:58:00;;;;;;;9.75;3.88;;;;;;;;;;5018725;28;20706;-38
2021/06/03 01:00:26;;;;;;;3.83;2.67;;;;;;;;;;5019206;28;20026;-38
2021/06/03 01:02:52;;;;;;;5.80;3.78;;;;;;;;;;5015570;28;20042;-38
2021/06/03 01:05:28;;;;;;;5.28;3.38;;;;;;;;;;5020857;28;20045;-39
2021/06/03 01:07:55;;;;;;;7.28;3.22;;;;;;;;;;5016680;28;20499;-38
2021/06/03 01:10:28;;;;;;;4.57;2.90;;;;;;;;;;5016796;28;20025;-38
2021/06/03 01:12:56;;;;;;;4.82;3.35;;;;;;;;;;5022648;28;20032;-38
2021/06/03 01:15:22;;;;;;;6.00;2.75;;;;;;;;;;5020220;28;20036;-38
2021/06/03 01:17:48;;;;;;;8.25;3.42;;;;;;;;;;5021171;28;20029;-38
2021/06/03 01:20:14;;;;;;;5.80;2.70;;;;;;;;;;5020264;28;20034;-38
2021/06/03 01:23:02;;;;;;;5.72;2.78;;;;;;;;;;5020183;28;20029;-38
2021/06/03 01:25:28;;;;;;;4.07;1.90;;;;;;;;;;5019509;28;20057;-38
2021/06/03 01:27:54;;;;;;;8.55;3.25;;;;;;;;;;5014251;28;20369;-38
2021/06/03 01:30:24;;;;;;;8.55;3.25;;;;;;;;;;5018164;28;20290;-39
2021/06/03 01:32:54;;;;;;;7.47;3.50;;;;;;;;;;5014416;28;20088;-38
2021/06/03 01:35:21;;;;;;;10.05;3.70;;;;;;;;;;5015364;28;20466;-38
2021/06/03 01:37:48;;;;;;;13.50;4.50;;;;;;;;;;5017408;28;20034;-39
2021/06/03 01:40:14;;;;;;;10.38;3.47;;;;;;;;;;5018026;28;20036;-38
2021/06/03 01:42:39;;;;;;;5.55;2.70;;;;;;;;;;5018374;28;20104;-38
2021/06/03 01:45:05;;;;;;;8.57;3.47;;;;;;;;;;5020153;28;20025;-38
2021/06/03 01:47:31;;;;;;;12.80;4.47;;;;;;;;;;5021539;28;20033;-38
2021/06/03 01:49:56;;;;;;;8.25;4.18;;;;;;;;;;5020565;28;20376;-38
2021/06/03 01:52:22;;;;;;;17.77;2.75;;;;;;;;;;5021023;28;20479;-38
2021/06/03 01:54:47;;;;;;;7.55;2.78;;;;;;;;;;5018340;28;20357;-38
2021/06/03 01:57:13;;;;;;;3.83;2.28;;;;;;;;;;5022394;28;20180;-38
2021/06/03 01:59:38;;;;;;;7.07;2.65;;;;;;;;;;5020975;28;20625;-38
2021/06/03 02:02:04;;;;;;;16.17;4.72;;;;;;;;;;5022717;28;20582;-38
2021/06/03 02:04:30;;;;;;;9.00;3.90;;;;;;;;;;5020097;28;20026;-38
2021/06/03 02:06:55;;;;;;;10.32;3.35;;;;;;;;;;5020267;28;20041;-38
2021/06/03 02:09:21;;;;;;;9.77;2.78;;;;;;;;;;5022804;28;20116;-38
2021/06/03 02:11:47;;;;;;;14.80;4.28;;;;;;;;;;5022502;28;20037;-38
2021/06/03 02:14:18;;;;;;;4.95;3.08;;;;;;;;;;5018686;28;20030;-38
2021/06/03 02:16:45;;;;;;;6.05;3.53;;;;;;;;;;5016826;28;20034;-38
2021/06/03 02:19:13;;;;;;;11.93;4.28;;;;;;;;;;5018269;28;20042;-39
2021/06/03 02:21:40;;;;;;;14.32;3.92;;;;;;;;;;5015548;28;20175;-38
2021/06/03 02:24:06;;;;;;;7.25;3.35;;;;;;;;;;5020002;28;20028;-38
2021/06/03 02:26:34;;;;;;;6.15;2.88;;;;;;;;;;5014438;28;20029;-38
2021/06/03 02:29:00;;;;;;;19.45;4.28;;;;;;;;;;5016993;28;20062;-38
2021/06/03 02:31:25;;;;;;;4.80;2.55;;;;;;;;;;5016599;28;20054;-38
2021/06/03 02:33:51;;;;;;;7.40;3.63;;;;;;;;;;5015424;28;20041;-38
2021/06/03 02:36:17;;;;;;;8.25;3.85;;;;;;;;;;5018581;28;20048;-38
2021/06/03 02:38:42;;;;;;;12.70;4.72;;;;;;;;;;5018984;28;20475;-38
2021/06/03 02:41:08;;;;;;;7.50;3.42;;;;;;;;;;5020572;28;20022;-38
2021/06/03 02:43:34;;;;;;;3.67;2.72;;;;;;;;;;5013074;28;20096;-38
2021/06/03 02:46:00;;;;;;;6.95;3.55;;;;;;;;;;5017780;28;20053;-38
2021/06/03 02:48:26;;;;;;;15.88;3.55;;;;;;;;;;5017748;28;20026;-38
2021/06/03 02:50:52;;;;;;;5.22;2.65;;;;;;;;;;5022070;28;20130;-39
2021/06/03 02:53:17;;;;;;;4.53;3.25;;;;;;;;;;5018368;28;20184;-38
2021/06/03 02:55:43;;;;;;;3.13;2.08;;;;;;;;;;5019923;28;20030;-38
2021/06/03 02:58:08;;;;;;;16.92;3.10;;;;;;;;;;5017616;28;20048;-38
2021/06/03 03:00:34;;;;;;;4.00;2.60;;;;;;;;;;5020161;28;20029;-40
2021/06/03 03:03:00;;;;;;;10.05;3.22;;;;;;;;;;5018663;28;20491;-39
2021/06/03 03:05:25;;;;;;;10.10;4.55;;;;;;;;;;5016094;28;20125;-39
2021/06/03 03:07:51;;;;;;;7.63;4.50;;;;;;;;;;5014282;28;20064;-39
2021/06/03 03:10:20;;;;;;;11.02;3.22;;;;;;;;;;5017091;28;20482;-38
2021/06/03 03:12:45;;;;;;;11.55;3.28;;;;;;;;;;5021079;28;20124;-38
2021/06/03 03:15:12;;;;;;;6.22;4.18;;;;;;;;;;5017938;28;20129;-38
2021/06/03 03:17:37;;;;;;;10.38;4.30;;;;;;;;;;5014957;28;20083;-38
2021/06/03 03:20:04;;;;;;;18.40;3.75;;;;;;;;;;5017696;28;20033;-38
2021/06/03 03:22:29;;;;;;;6.80;4.15;;;;;;;;;;5018986;28;20054;-37
2021/06/03 03:24:55;;;;;;;6.65;3.65;;;;;;;;;;5017735;28;20030;-38
2021/06/03 03:27:20;;;;;;;6.18;3.47;;;;;;;;;;4999158;28;20046;-38
2021/06/03 03:29:45;;;;;;;9.63;3.45;;;;;;;;;;5016229;28;20072;-38
2021/06/03 03:32:11;;;;;;;8.35;3.17;;;;;;;;;;5019198;28;20158;-37
2021/06/03 03:34:36;;;;;;;8.63;3.65;;;;;;;;;;5014811;28;20368;-38
2021/06/03 03:37:02;;;;;;;9.90;3.85;;;;;;;;;;4998521;28;20061;-37
2021/06/03 03:39:28;;;;;;;13.43;4.47;;;;;;;;;;5016428;28;20036;-37
2021/06/03 03:41:53;;;;;;;12.52;3.88;;;;;;;;;;5020756;28;20029;-38
2021/06/03 03:44:19;;;;;;;10.80;3.47;;;;;;;;;;5019298;28;20030;-38
2021/06/03 03:46:44;;;;;;;8.23;3.72;;;;;;;;;;5015403;28;20119;-37
2021/06/03 03:49:09;;;;;;;6.15;3.03;;;;;;;;;;5017256;28;20040;-38
2021/06/03 03:51:35;;;;;;;13.15;4.68;;;;;;;;;;5011647;28;20522;-38
2021/06/03 03:54:00;;;;;;;10.32;3.80;;;;;;;;;;5017471;28;20043;-37
2021/06/03 03:56:25;;;;;;;8.25;4.65;;;;;;;;;;5016021;28;20133;-37
2021/06/03 03:58:51;;;;;;;9.20;3.95;;;;;;;;;;5017243;28;20098;-37
2021/06/03 04:01:16;;;;;;;8.07;4.95;;;;;;;;;;5018175;28;20033;-37
2021/06/03 04:03:42;;;;;;;4.65;3.03;;;;;;;;;;5017158;28;20075;-37
2021/06/03 04:06:07;;;;;;;20.02;4.75;;;;;;;;;;5018027;28;20037;-38
2021/06/03 04:08:33;;;;;;;7.30;3.70;;;;;;;;;;5013560;28;20137;-38
2021/06/03 04:10:58;;;;;;;7.72;4.18;;;;;;;;;;5010769;28;20116;-37
2021/06/03 04:13:24;;;;;;;9.52;4.13;;;;;;;;;;5013311;28;20076;-37
2021/06/03 04:15:49;;;;;;;6.93;3.22;;;;;;;;;;5015023;28;20069;-37
2021/06/03 04:18:14;;;;;;;10.68;5.47;;;;;;;;;;5015396;28;20518;-38
2021/06/03 04:20:40;;;;;;;10.25;6.00;;;;;;;;;;5016723;28;20527;-37
2021/06/03 04:23:06;;;;;;;7.57;4.22;;;;;;;;;;5017337;28;20025;-38
2021/06/03 04:25:31;;;;;;;10.95;4.15;;;;;;;;;;5021390;28;20033;-37
2021/06/03 04:27:57;;;;;;;7.00;4.18;;;;;;;;;;5019108;28;20273;-37
2021/06/03 04:30:24;;;;;;;6.88;3.63;;;;;;;;;;5019551;28;20037;-38
2021/06/03 04:32:50;;;;;;;6.90;3.58;;;;;;;;;;5019904;28;20037;-38
2021/06/03 04:35:17;;;;;;;4.75;4.07;;;;;;;;;;5023211;28;20030;-37
2021/06/03 04:37:44;;;;;;;9.18;4.22;;;;;;;;;;5019415;28;20033;-37
2021/06/03 04:40:10;;;;;;;7.60;4.50;;;;;;;;;;5021084;28;20053;-37
2021/06/03 04:42:35;;;;;;;8.43;3.35;;;;;;;;;;5021458;28;20502;-38
2021/06/03 04:45:01;;;;;;;8.35;3.25;;;;;;;;;;5019758;28;20026;-37
2021/06/03 04:47:26;;;;;;;6.80;3.72;;;;;;;;;;5016247;28;20030;-38
2021/06/03 04:49:52;;;;;;;8.52;4.75;;;;;;;;;;5018720;28;20033;-38
2021/06/03 04:52:26;;;;;;;11.38;5.45;;;;;;;;;;5020945;28;20038;-38
2021/06/03 04:54:56;;;;;;;8.57;5.13;;;;;;;;;;5017224;28;20045;-38
2021/06/03 04:57:22;;;;;;;7.30;4.55;;;;;;;;;;5019392;28;20037;-38
2021/06/03 04:59:47;;;;;;;9.80;4.78;;;;;;;;;;5018028;28;20509;-38
2021/06/03 05:02:12;;;;;;;11.80;4.35;;;;;;;;;;5017770;28;20602;-38
2021/06/03 05:04:37;;;;;;;7.55;4.63;;;;;;;;;;5021346;28;20113;-39
2021/06/03 05:07:03;;;;;;;8.88;4.57;;;;;;;;;;5019988;28;20059;-39
2021/06/03 05:09:28;;;;;;;9.48;5.07;;;;;;;;;;5015121;28;20124;-39
2021/06/03 05:11:53;;;;;;;7.85;4.45;;;;;;;;;;5017609;28;20044;-40
2021/06/03 05:14:19;;;;;;;10.63;5.65;;;;;;;;;;5022347;28;20030;-39
2021/06/03 05:16:44;;;;;;;12.00;4.13;;;;;;;;;;5017882;28;20445;-39
2021/06/03 05:19:09;;;;;;;7.70;3.67;;;;;;;;;;5019136;28;20092;-41
2021/06/03 05:21:35;;;;;;;11.07;4.50;;;;;;;;;;5019297;28;20372;-39
2021/06/03 05:24:00;;;;;;;4.20;3.13;;;;;;;;;;5020171;28;20573;-39
2021/06/03 05:26:25;;;;;;;8.98;5.28;;;;;;;;;;5017962;28;20085;-39
2021/06/03 05:28:51;;;;;;;8.10;5.22;;;;;;;;;;5017935;28;20049;-39
2021/06/03 05:31:16;;;;;;;13.80;6.43;;;;;;;;;;5016571;28;20026;-39
2021/06/03 05:33:41;;;;;;;10.15;5.13;;;;;;;;;;5018364;28;20061;-39
2021/06/03 05:36:06;;;;;;;17.08;5.32;;;;;;;;;;5015820;28;20030;-39
2021/06/03 05:38:32;;;;;;;8.32;5.65;;;;;;;;;;5015020;28;20105;-39
2021/06/03 05:40:57;;;;;;;7.40;4.00;;;;;;;;;;5012320;28;20034;-39
2021/06/03 05:43:22;;;;;;;9.27;4.28;;;;;;;;;;5017445;28;20030;-42
2021/06/03 05:45:48;;;;;;;21.45;11.68;;;;;;;;;;5016832;28;20482;-40
2021/06/03 05:48:13;;;;;;;23.75;5.78;;;;;;;;;;5014224;28;20077;-39
2021/06/03 05:50:38;;;;;;;4.90;4.32;;;;;;;;;;5017595;28;20122;-39
2021/06/03 05:53:04;;;;;;;11.85;4.47;;;;;;;;;;5015171;28;20045;-39
2021/06/03 05:55:30;;;;;;;10.50;4.25;;;;;;;;;;5016292;28;20042;-40
2021/06/03 05:57:55;;;;;;;8.48;4.72;;;;;;;;;;5018114;28;20033;-40
2021/06/03 06:00:22;;;;;;;11.05;5.35;;;;;;;;;;5017832;28;20373;-39
2021/06/03 06:08:01;;;;;;;8.93;5.78;;;;;;;;;;5018148;28;20139;-42
2021/06/03 06:10:27;;;;;;;12.35;5.25;;;;;;;;;;5016463;28;20086;-40
2021/06/03 06:12:53;;;;;;;10.95;5.38;;;;;;;;;;5018189;28;20682;-39
2021/06/03 06:15:18;;;;;;;17.25;6.18;;;;;;;;;;5016733;28;20645;-40
2021/06/03 06:17:43;;;;;;;5.97;4.50;;;;;;;;;;5016003;28;20491;-40
2021/06/03 06:20:09;;;;;;;12.02;4.63;;;;;;;;;;5021044;28;20120;-40
2021/06/03 06:22:35;;;;;;;19.30;4.93;;;;;;;;;;5019214;28;20048;-39
2021/06/03 06:25:03;;;;;;;11.63;4.10;;;;;;;;;;5017725;28;20025;-41
2021/06/03 06:27:28;;;;;;;11.60;5.93;;;;;;;;;;5013021;28;20092;-40
2021/06/03 06:29:53;;;;;;;14.18;5.22;;;;;;;;;;5016648;28;20033;-41
2021/06/03 06:32:19;;;;;;;14.50;5.68;;;;;;;;;;5018195;28;20040;-41
2021/06/03 06:34:44;;;;;;;10.45;5.40;;;;;;;;;;5018494;28;20041;-39
2021/06/03 06:37:09;;;;;;;17.77;5.03;;;;;;;;;;5017925;28;20525;-41
2021/06/03 06:39:36;;;;;;;10.70;6.10;;;;;;;;;;5020860;28;20126;-41
2021/06/03 06:42:02;;;;;;;11.55;5.38;;;;;;;;;;5014077;28;20038;-39
2021/06/03 06:44:27;;;;;;;10.73;4.10;;;;;;;;;;5017021;28;20180;-40
2021/06/03 06:46:52;;;;;;;8.70;6.13;;;;;;;;;;5017290;28;20394;-39
2021/06/03 06:49:18;;;;;;;7.10;4.68;;;;;;;;;;5019888;28;20040;-42
2021/06/03 06:51:43;;;;;;;21.73;5.72;;;;;;;;;;5014771;28;20030;-40
2021/06/03 06:54:08;;;;;;;12.32;6.22;;;;;;;;;;5014593;28;20041;-41
2021/06/03 06:56:33;;;;;;;12.95;6.03;;;;;;;;;;5018369;28;20057;-41
2021/06/03 06:58:59;;;;;;;13.13;4.50;;;;;;;;;;5016616;28;20041;-39
2021/06/03 07:01:25;;;;;;;10.80;5.13;;;;;;;;;;5016509;28;20038;-39
2021/06/03 07:03:51;;;;;;;22.05;7.38;;;;;;;;;;5018049;28;20026;-40
2021/06/03 07:06:16;;;;;;;18.80;4.40;;;;;;;;;;5016137;28;20033;-39
2021/06/03 07:08:41;;;;;;;16.83;7.65;;;;;;;;;;5014164;28;20045;-39
2021/06/03 07:11:07;;;;;;;9.15;3.90;;;;;;;;;;5015670;28;20471;-41
2021/06/03 07:13:32;;;;;;;10.35;6.55;;;;;;;;;;5020622;28;20083;-39
2021/06/03 07:15:57;;;;;;;10.15;3.85;;;;;;;;;;5016242;28;20101;-40
2021/06/03 07:18:23;;;;;;;20.25;5.22;;;;;;;;;;5014030;28;20133;-34
2021/06/03 07:20:48;;;;;;;15.50;4.97;;;;;;;;;;5017069;28;20038;-34
2021/06/03 07:23:13;;;;;;;11.00;6.28;;;;;;;;;;5017604;28;20475;-35
2021/06/03 07:25:40;;;;;;;9.02;5.05;;;;;;;;;;5019046;28;20083;-34
2021/06/03 07:28:06;;;;;;;10.60;5.72;;;;;;;;;;5015477;28;20487;-34
2021/06/03 07:30:32;;;;;;;19.48;6.13;;;;;;;;;;5018279;28;20044;-35
2021/06/03 07:32:57;;;;;;;8.93;3.33;;;;;;;;;;5020959;28;20057;-34
2021/06/03 07:35:23;;;;;;;15.57;4.55;;;;;;;;;;5018818;28;20116;-34
2021/06/03 07:37:49;;;;;;;5.63;3.45;;;;;;;;;;5019103;28;20065;-35
2021/06/03 07:40:18;;;;;;;9.88;4.70;;;;;;;;;;5012468;28;20041;-34
2021/06/03 07:42:44;;;;;;;14.38;3.60;;;;;;;;;;5017101;28;20116;-35
2021/06/03 07:45:11;;;;;;;9.23;4.78;;;;;;;;;;5017277;28;20452;-35
2021/06/03 07:47:38;;;;;;;9.13;2.80;;;;;;;;;;5015757;28;20044;-34
2021/06/03 07:50:04;;;;;;;10.82;4.90;;;;;;;;;;5018493;28;20026;-35
2021/06/03 07:52:29;;;;;;;7.18;3.70;;;;;;;;;;5016053;28;20511;-35
2021/06/03 07:54:54;;;;;;;8.75;4.22;;;;;;;;;;5015902;28;20033;-35
2021/06/03 07:57:20;;;;;;;14.30;5.65;;;;;;;;;;5019363;28;20340;-35
2021/06/03 07:59:45;;;;;;;11.90;4.03;;;;;;;;;;5020585;28;20091;-34
2021/06/03 08:02:11;;;;;;;18.45;5.07;;;;;;;;;;5021295;28;20499;-34
2021/06/03 08:04:36;;;;;;;11.40;4.88;;;;;;;;;;5022250;28;20080;-34
2021/06/03 08:07:01;;;;;;;19.30;5.15;;;;;;;;;;5023264;28;20554;-34
2021/06/03 08:09:27;;;;;;;5.97;3.70;;;;;;;;;;5023765;28;20117;-34
2021/06/03 08:11:52;;;;;;;5.43;2.83;;;;;;;;;;5024290;28;20040;-34
2021/06/03 08:14:17;;;;;;;140.38;127.28;;;;;;;;;;5024818;28;20025;-35
2021/06/03 08:16:42;;;;;;;16.00;7.20;;;;;;;;;;5022472;28;20144;-35
2021/06/03 08:19:08;;;;;;;20.42;9.55;;;;;;;;;;5020469;28;20477;-34
2021/06/03 08:21:34;;;;;;;5.75;2.83;;;;;;;;;;5018884;28;20065;-35
2021/06/03 08:24:00;;;;;;;51.53;12.88;;;;;;;;;;5019761;28;20486;-34
2021/06/03 08:26:28;;;;;;;8.20;3.55;;;;;;;;;;5017813;28;20026;-35
2021/06/03 08:28:58;;;;;;;5.53;2.28;;;;;;;;;;5022618;28;20108;-34
2021/06/03 08:31:26;;;;;;;4.38;1.65;;;;;;;;;;5021646;28;20629;-34
2021/06/03 08:33:51;;;;;;;3.33;1.33;;;;;;;;;;5020490;28;20029;-34
2021/06/03 08:36:17;;;;;;;5.57;2.42;;;;;;;;;;5015235;28;20550;-34
2021/06/03 08:38:42;;;;;;;7.63;2.45;;;;;;;;;;5018842;28;20088;-34
2021/06/03 08:41:07;;;;;;;6.05;2.75;;;;;;;;;;5019886;28;20394;-34
2021/06/03 08:43:33;;;;;;;3.97;2.13;;;;;;;;;;5018065;28;20049;-34
2021/06/03 08:46:00;;;;;;;8.27;3.90;;;;;;;;;;5016654;28;20068;-34
2021/06/03 08:48:26;;;;;;;5.55;1.45;;;;;;;;;;5023845;28;20038;-34
2021/06/03 08:50:53;;;;;;;10.07;3.20;;;;;;;;;;5019810;28;20045;-34
2021/06/03 08:53:19;;;;;;;17.05;3.53;;;;;;;;;;5018467;28;20129;-34
2021/06/03 08:58:29;;;;;;;4.40;1.30;;;;;;;;;;5021352;28;20043;-35
2021/06/03 09:00:55;;;;;;;9.15;3.35;;;;;;;;;;5004283;28;20037;-35
2021/06/03 09:03:22;;;;;;;12.27;4.35;;;;;;;;;;5020236;28;20048;-35
2021/06/03 09:05:48;;;;;;;3.85;2.53;;;;;;;;;;5027856;28;20033;-35
2021/06/03 09:08:17;;;;;;;12.77;4.32;;;;;;;;;;5020255;28;20048;-35
2021/06/03 09:10:43;;;;;;;10.57;3.35;;;;;;;;;;5022002;28;20048;-35
2021/06/03 09:13:10;;;;;;;7.00;4.00;;;;;;;;;;5012300;28;20586;-35
2021/06/03 09:15:37;;;;;;;29.35;9.00;;;;;;;;;;5019476;28;20100;-35
2021/06/03 09:18:06;;;;;;;8.27;3.55;;;;;;;;;;5020661;28;20034;-35
2021/06/03 09:20:31;;;;;;;9.20;4.10;;;;;;;;;;5016615;28;20076;-35
2021/06/03 09:22:57;;;;;;;24.85;4.80;;;;;;;;;;5016317;28;20034;-35
2021/06/03 09:25:25;;;;;;;10.40;6.00;;;;;;;;;;5016397;28;20498;-35
2021/06/03 09:27:50;;;;;;;8.63;4.88;;;;;;;;;;5021496;28;20088;-35
2021/06/03 09:30:16;;;;;;;16.25;5.22;;;;;;;;;;5020071;28;20037;-35
2021/06/03 09:32:51;;;;;;;8.02;3.03;;;;;;;;;;5004935;28;20034;-35
2021/06/03 09:35:17;;;;;;;13.30;7.03;;;;;;;;;;5016672;28;20487;-35
2021/06/03 09:37:44;;;;;;;14.73;6.78;;;;;;;;;;5018000;28;20048;-35
2021/06/03 09:40:19;;;;;;;17.23;5.93;;;;;;;;;;5021710;28;20033;-35
2021/06/03 09:43:03;;;;;;;15.75;7.53;;;;;;;;;;5017581;28;20076;-35
2021/06/03 09:45:48;;;;;;;12.70;8.23;;;;;;;;;;5016446;28;20041;-35
2021/06/03 09:48:33;;;;;;;16.75;8.68;;;;;;;;;;5018638;28;20065;-35
2021/06/03 09:51:18;;;;;;;17.73;10.02;;;;;;;;;;5019042;28;20498;-35
2021/06/03 09:53:50;;;;;;;8.52;6.93;;;;;;;;;;5016606;28;20034;-35
2021/06/03 09:56:21;;;;;;;17.17;8.00;;;;;;;;;;5013048;28;20038;-37
2021/06/03 09:58:47;;;;;;;19.80;7.63;;;;;;;;;;5015950;28;20041;-35
2021/06/03 10:01:12;;;;;;;13.65;6.47;;;;;;;;;;5016906;28;20513;-35
2021/06/03 10:03:50;;;;;;;19.92;7.78;;;;;;;;;;5017551;28;20038;-35
2021/06/03 10:06:16;;;;;;;22.17;8.50;;;;;;;;;;5019968;28;20041;-35
2021/06/03 10:08:45;;;;;;;9.23;7.20;;;;;;;;;;5018865;28;20025;-35
2021/06/03 10:11:10;;;;;;;15.13;6.35;;;;;;;;;;5021667;28;20080;-35
2021/06/03 10:13:43;;;;;;;10.48;5.72;;;;;;;;;;5021486;28;20033;-35
2021/06/03 10:16:28;;;;;;;12.00;6.32;;;;;;;;;;5023688;28;20104;-35
2021/06/03 10:19:14;;;;;;;16.85;8.55;;;;;;;;;;5020914;28;20116;-35
2021/06/03 10:21:39;;;;;;;9.30;7.07;;;;;;;;;;5016116;28;20030;-35
2021/06/03 10:24:04;;;;;;;12.88;6.82;;;;;;;;;;5020228;28;20447;-35
2021/06/03 10:26:49;;;;;;;13.27;7.07;;;;;;;;;;5021568;28;20113;-35
2021/06/03 10:29:15;;;;;;;19.60;5.57;;;;;;;;;;5019013;28;20237;-35
2021/06/03 10:31:40;;;;;;;16.77;6.13;;;;;;;;;;5018068;28;20143;-35
2021/06/03 10:34:05;;;;;;;11.85;4.30;;;;;;;;;;5020080;28;20029;-35
2021/06/03 10:36:31;;;;;;;12.43;5.55;;;;;;;;;;5020333;28;20037;-35
2021/06/03 10:38:57;;;;;;;16.80;5.90;;;;;;;;;;5019404;28;20038;-35
2021/06/03 10:41:22;;;;;;;6.80;4.40;;;;;;;;;;5019779;28;20036;-35
2021/06/03 10:43:47;;;;;;;35.15;9.38;;;;;;;;;;5015183;28;20416;-35
2021/06/03 10:46:13;;;;;;;4.15;2.40;;;;;;;;;;5018478;28;20034;-35
2021/06/03 10:48:39;;;;;;;9.82;4.75;;;;;;;;;;5015978;28;20617;-35
2021/06/03 10:51:06;;;;;;;7.00;4.55;;;;;;;;;;5015846;28;20030;-35
2021/06/03 10:53:31;;;;;;;8.85;4.60;;;;;;;;;;5016235;28;20113;-35
2021/06/03 10:56:21;;;;;;;9.98;3.90;;;;;;;;;;5017628;28;20128;-35
2021/06/03 10:58:48;;;;;;;3.10;2.40;;;;;;;;;;5017660;28;20036;-34
2021/06/03 11:01:14;;;;;;;10.07;4.85;;;;;;;;;;5019737;28;20033;-37
2021/06/03 11:04:04;;;;;;;6.43;2.88;;;;;;;;;;5016732;28;20044;-34
2021/06/03 11:06:31;;;;;;;11.65;5.10;;;;;;;;;;5016792;28;20026;-34
2021/06/03 11:08:56;;;;;;;14.82;5.30;;;;;;;;;;5015587;28;20034;-34
2021/06/03 11:11:24;;;;;;;4.65;3.53;;;;;;;;;;5012458;28;20084;-34
2021/06/03 11:13:49;;;;;;;7.40;3.30;;;;;;;;;;5018632;28;20041;-35
2021/06/03 11:16:16;;;;;;;19.67;13.33;;;;;;;;;;5018470;28;20026;-35
2021/06/03 11:18:44;;;;;;;6.45;4.20;;;;;;;;;;5016950;28;20263;-35
2021/06/03 11:21:09;;;;;;;13.40;3.88;;;;;;;;;;5015073;28;20464;-35
2021/06/03 11:23:35;;;;;;;5.95;2.80;;;;;;;;;;5016144;28;20120;-35
2021/06/03 11:26:01;;;;;;;5.35;3.80;;;;;;;;;;5016468;28;20041;-35
2021/06/03 11:28:26;;;;;;;4.63;3.58;;;;;;;;;;5018192;28;20035;-35
2021/06/03 11:30:55;;;;;;;7.15;3.75;;;;;;;;;;5018341;28;20052;-35
2021/06/03 11:33:20;;;;;;;6.10;3.53;;;;;;;;;;5018285;28;20026;-35
2021/06/03 11:35:46;;;;;;;10.73;2.22;;;;;;;;;;5019023;28;20217;-35
2021/06/03 11:38:11;;;;;;;2.75;2.25;;;;;;;;;;5018151;28;20581;-35
2021/06/03 11:40:43;;;;;;;7.55;3.95;;;;;;;;;;5018225;28;20510;-35
2021/06/03 11:43:10;;;;;;;7.38;3.90;;;;;;;;;;5019087;28;20354;-35
2021/06/03 11:45:40;;;;;;;6.68;2.83;;;;;;;;;;5015609;28;20140;-35
2021/06/03 11:48:09;;;;;;;8.57;4.00;;;;;;;;;;5014610;28;20034;-35
2021/06/03 11:50:36;;;;;;;5.90;2.67;;;;;;;;;;5015431;28;20449;-35
2021/06/03 11:53:03;;;;;;;21.50;4.32;;;;;;;;;;5014945;28;20109;-35
2021/06/03 11:55:28;;;;;;;9.40;4.95;;;;;;;;;;5016467;28;20034;-35
2021/06/03 11:58:08;;;;;;;27.60;4.80;;;;;;;;;;5016230;28;20034;-35
2021/06/03 12:00:38;;;;;;;17.60;5.53;;;;;;;;;;5017271;28;20353;-35
2021/06/03 12:03:23;;;;;;;3.13;2.15;;;;;;;;;;5017147;28;20037;-35
2021/06/03 12:05:49;;;;;;;7.72;3.90;;;;;;;;;;5015679;28;20061;-35
2021/06/03 12:08:32;;;;;;;10.82;5.13;;;;;;;;;;5022652;28;20033;-35
2021/06/03 12:10:58;;;;;;;7.38;3.95;;;;;;;;;;5016725;28;20075;-35
2021/06/03 12:13:23;;;;;;;8.88;5.63;;;;;;;;;;5013710;28;20038;-35
2021/06/03 12:15:48;;;;;;;11.93;4.07;;;;;;;;;;5014755;28;20124;-35
2021/06/03 12:18:14;;;;;;;15.38;4.97;;;;;;;;;;5016254;28;20025;-35
2021/06/03 12:20:40;;;;;;;5.80;3.92;;;;;;;;;;5018606;28;20402;-35
2021/06/03 12:23:05;;;;;;;3.55;2.35;;;;;;;;;;5001842;28;20113;-35
2021/06/03 12:25:35;;;;;;;12.23;3.40;;;;;;;;;;5015396;28;20545;-35
2021/06/03 12:28:00;;;;;;;5.25;2.33;;;;;;;;;;5018410;28;20025;-35
2021/06/03 12:30:29;;;;;;;13.57;5.00;;;;;;;;;;5018705;28;20045;-34
2021/06/03 12:32:59;;;;;;;5.78;3.25;;;;;;;;;;5015398;28;20487;-34
2021/06/03 12:35:31;;;;;;;9.85;5.47;;;;;;;;;;5015496;28;20491;-34
2021/06/03 12:37:56;;;;;;;6.32;3.10;;;;;;;;;;5016134;28;20092;-34
2021/06/03 12:40:23;;;;;;;10.20;3.72;;;;;;;;;;5018692;28;20696;-34
2021/06/03 12:42:49;;;;;;;3.08;2.13;;;;;;;;;;5012031;28;20036;-34
2021/06/03 12:45:15;;;;;;;5.95;3.10;;;;;;;;;;5017202;28;20030;-35
2021/06/03 12:47:40;;;;;;;9.60;5.15;;;;;;;;;;5020806;28;20030;-34
2021/06/03 12:50:07;;;;;;;3.60;3.13;;;;;;;;;;5020421;28;20044;-34
2021/06/03 12:52:33;;;;;;;4.90;2.72;;;;;;;;;;5020162;28;20041;-34
2021/06/03 12:54:59;;;;;;;7.20;4.55;;;;;;;;;;5020678;28;20034;-35
2021/06/03 12:57:25;;;;;;;7.10;4.70;;;;;;;;;;5020873;28;20034;-34
2021/06/03 12:59:53;;;;;;;8.65;3.85;;;;;;;;;;5020891;28;20418;-34
2021/06/03 13:02:18;;;;;;;5.95;3.90;;;;;;;;;;5018615;28;20073;-34
2021/06/03 13:04:45;;;;;;;16.35;5.50;;;;;;;;;;5021073;28;20669;-34
2021/06/03 13:07:15;;;;;;;12.90;4.35;;;;;;;;;;5017071;28;20122;-34
2021/06/03 13:09:40;;;;;;;10.90;3.97;;;;;;;;;;5017502;28;20037;-34
2021/06/03 13:12:11;;;;;;;14.20;4.85;;;;;;;;;;5018711;28;20038;-34
2021/06/03 13:14:41;;;;;;;10.77;4.90;;;;;;;;;;5021037;28;20047;-34
2021/06/03 13:17:09;;;;;;;8.32;4.10;;;;;;;;;;5020868;28;20559;-34
2021/06/03 13:19:34;;;;;;;17.98;5.95;;;;;;;;;;5018825;28;20153;-34
2021/06/03 13:22:01;;;;;;;7.50;2.45;;;;;;;;;;5018030;28;20545;-34
2021/06/03 13:24:28;;;;;;;12.77;4.68;;;;;;;;;;5022634;28;20120;-35
2021/06/03 13:26:57;;;;;;;10.77;5.55;;;;;;;;;;5018653;28;20104;-34
2021/06/03 13:29:23;;;;;;;13.05;4.25;;;;;;;;;;5020753;28;20040;-34
2021/06/03 13:31:49;;;;;;;6.50;4.53;;;;;;;;;;5022591;28;20505;-35
2021/06/03 13:34:33;;;;;;;7.10;3.08;;;;;;;;;;5023006;28;20033;-35
2021/06/03 13:36:59;;;;;;;8.13;4.97;;;;;;;;;;5019079;28;20104;-35
2021/06/03 13:39:31;;;;;;;8.95;4.57;;;;;;;;;;5020683;28;20594;-35
2021/06/03 13:41:57;;;;;;;7.53;2.70;;;;;;;;;;5017745;28;20032;-35
2021/06/03 13:44:23;;;;;;;10.07;4.50;;;;;;;;;;5018624;28;20104;-35
2021/06/03 13:46:48;;;;;;;5.95;2.55;;;;;;;;;;5017540;28;20678;-35
2021/06/03 13:49:27;;;;;;;12.95;3.55;;;;;;;;;;5017370;28;20081;-35
2021/06/03 13:52:03;;;;;;;7.03;4.72;;;;;;;;;;5016936;28;20083;-35
2021/06/03 13:54:28;;;;;;;7.80;4.78;;;;;;;;;;5018504;28;20383;-35
2021/06/03 13:56:54;;;;;;;7.03;4.53;;;;;;;;;;5018107;28;20034;-35
2021/06/03 13:59:19;;;;;;;20.63;4.22;;;;;;;;;;5020101;28;20029;-35
2021/06/03 14:01:46;;;;;;;16.15;5.88;;;;;;;;;;5019541;28;20038;-35
2021/06/03 14:04:13;;;;;;;10.77;5.22;;;;;;;;;;5020070;28;20076;-34
2021/06/03 14:06:44;;;;;;;5.22;2.65;;;;;;;;;;5022403;28;20087;-34
2021/06/03 14:09:16;;;;;;;3.78;2.30;;;;;;;;;;5021438;28;20030;-34
2021/06/03 14:14:18;;;;;;;3.25;2.45;;;;;;;;;;5017495;28;20033;-34
2021/06/03 14:16:44;;;;;;;6.15;2.03;;;;;;;;;;5018386;28;20039;-35
2021/06/03 14:19:10;;;;;;;6.63;2.45;;;;;;;;;;5017128;28;20032;-34
2021/06/03 14:21:36;;;;;;;4.28;2.33;;;;;;;;;;5020947;28;20029;-35
2021/06/03 14:24:02;;;;;;;3.80;2.28;;;;;;;;;;5020586;28;20036;-34
2021/06/03 14:26:35;;;;;;;5.40;2.90;;;;;;;;;;5020539;28;20018;-34
2021/06/03 14:29:02;;;;;;;12.00;3.33;;;;;;;;;;5017789;28;20038;-34
2021/06/03 14:31:41;;;;;;;8.15;2.35;;;;;;;;;;5018168;28;20026;-34
2021/06/03 14:34:06;;;;;;;7.75;2.63;;;;;;;;;;5018084;28;20107;-34
2021/06/03 14:36:51;;;;;;;7.05;3.45;;;;;;;;;;5018626;28;20500;-35
2021/06/03 14:39:16;;;;;;;6.35;4.60;;;;;;;;;;5019459;28;20076;-35
2021/06/03 14:41:42;;;;;;;7.90;3.17;;;;;;;;;;5021224;28;20041;-35
2021/06/03 14:44:08;;;;;;;6.97;4.97;;;;;;;;;;5014667;28;20037;-35
2021/06/03 14:46:33;;;;;;;11.30;4.38;;;;;;;;;;5019699;28;20029;-35
2021/06/03 14:48:59;;;;;;;13.00;4.50;;;;;;;;;;5016295;28;20022;-34